sensor_id;sensor_type;location;lat;lon;timestamp;P1;durP1;ratioP1;P2;durP2;ratioP2
63370;SDS011;49504;48.336;14.472;2023-02-07T00:02:20;4.18;;;1.98;;
63370;SDS011;49504;48.336;14.472;2023-02-07T00:07:21;4.45;;;1.90;;
63370;SDS011;49504;48.336;14.472;2023-02-07T00:18:37;3.67;;;1.70;;
63370;SDS011;49504;48.336;14.472;2023-02-07T00:23:39;3.92;;;1.98;;
63370;SDS011;49504;48.336;14.472;2023-02-07T00:28:40;4.10;;;2.00;;
63370;SDS011;49504;48.336;14.472;2023-02-07T00:33:44;4.63;;;2.10;;
63370;SDS011;49504;48.336;14.472;2023-02-07T00:38:46;3.97;;;1.80;;
63370;SDS011;49504;48.336;14.472;2023-02-07T00:43:48;3.63;;;1.70;;
63370;SDS011;49504;48.336;14.472;2023-02-07T00:48:51;3.67;;;1.85;;
63370;SDS011;49504;48.336;14.472;2023-02-07T00:53:52;4.55;;;2.20;;
63370;SDS011;49504;48.336;14.472;2023-02-07T00:58:53;3.75;;;1.85;;
63370;SDS011;49504;48.336;14.472;2023-02-07T01:03:56;3.63;;;1.80;;
63370;SDS011;49504;48.336;14.472;2023-02-07T01:08:58;3.60;;;1.92;;
63370;SDS011;49504;48.336;14.472;2023-02-07T01:14:01;3.60;;;2.00;;
63370;SDS011;49504;48.336;14.472;2023-02-07T01:19:05;3.53;;;1.63;;
63370;SDS011;49504;48.336;14.472;2023-02-07T01:24:08;4.10;;;1.90;;
63370;SDS011;49504;48.336;14.472;2023-02-07T01:29:10;4.20;;;2.03;;
63370;SDS011;49504;48.336;14.472;2023-02-07T01:34:16;4.40;;;2.15;;
63370;SDS011;49504;48.336;14.472;2023-02-07T01:39:17;3.65;;;1.95;;
63370;SDS011;49504;48.336;14.472;2023-02-07T01:50:05;3.53;;;1.63;;
63370;SDS011;49504;48.336;14.472;2023-02-07T01:55:08;3.60;;;1.80;;
63370;SDS011;49504;48.336;14.472;2023-02-07T02:00:14;3.40;;;1.98;;
63370;SDS011;49504;48.336;14.472;2023-02-07T02:05:18;3.75;;;1.80;;
63370;SDS011;49504;48.336;14.472;2023-02-07T02:10:21;3.75;;;1.85;;
63370;SDS011;49504;48.336;14.472;2023-02-07T02:15:38;4.10;;;1.80;;
63370;SDS011;49504;48.336;14.472;2023-02-07T02:26:42;4.40;;;1.92;;
63370;SDS011;49504;48.336;14.472;2023-02-07T02:32:02;3.97;;;1.98;;
63370;SDS011;49504;48.336;14.472;2023-02-07T02:37:54;3.38;;;1.60;;
63370;SDS011;49504;48.336;14.472;2023-02-07T02:43:03;4.20;;;1.85;;
63370;SDS011;49504;48.336;14.472;2023-02-07T02:48:08;4.43;;;2.42;;
63370;SDS011;49504;48.336;14.472;2023-02-07T02:53:12;4.10;;;1.80;;
63370;SDS011;49504;48.336;14.472;2023-02-07T02:58:16;3.92;;;1.90;;
63370;SDS011;49504;48.336;14.472;2023-02-07T03:03:29;4.13;;;1.90;;
63370;SDS011;49504;48.336;14.472;2023-02-07T03:08:59;4.35;;;1.95;;
63370;SDS011;49504;48.336;14.472;2023-02-07T03:14:16;4.13;;;2.30;;
63370;SDS011;49504;48.336;14.472;2023-02-07T03:19:26;4.85;;;2.30;;
63370;SDS011;49504;48.336;14.472;2023-02-07T03:24:34;3.97;;;1.95;;
63370;SDS011;49504;48.336;14.472;2023-02-07T03:29:41;4.38;;;2.30;;
63370;SDS011;49504;48.336;14.472;2023-02-07T03:34:47;3.70;;;1.70;;
63370;SDS011;49504;48.336;14.472;2023-02-07T03:39:54;3.15;;;1.52;;
63370;SDS011;49504;48.336;14.472;2023-02-07T03:44:56;4.65;;;2.00;;
63370;SDS011;49504;48.336;14.472;2023-02-07T03:50:00;4.00;;;2.10;;
63370;SDS011;49504;48.336;14.472;2023-02-07T03:57:47;4.78;;;2.28;;
63370;SDS011;49504;48.336;14.472;2023-02-07T04:02:48;4.47;;;2.13;;
63370;SDS011;49504;48.336;14.472;2023-02-07T04:07:50;3.17;;;1.63;;
63370;SDS011;49504;48.336;14.472;2023-02-07T04:12:52;4.53;;;2.10;;
63370;SDS011;49504;48.336;14.472;2023-02-07T04:20:31;3.80;;;1.90;;
63370;SDS011;49504;48.336;14.472;2023-02-07T04:25:32;3.60;;;1.92;;
63370;SDS011;49504;48.336;14.472;2023-02-07T04:30:33;3.65;;;1.98;;
63370;SDS011;49504;48.336;14.472;2023-02-07T04:40:07;4.13;;;2.10;;
63370;SDS011;49504;48.336;14.472;2023-02-07T04:45:09;3.88;;;1.98;;
63370;SDS011;49504;48.336;14.472;2023-02-07T04:50:10;3.67;;;2.00;;
63370;SDS011;49504;48.336;14.472;2023-02-07T04:55:13;4.30;;;2.28;;
63370;SDS011;49504;48.336;14.472;2023-02-07T05:00:14;3.83;;;2.05;;
63370;SDS011;49504;48.336;14.472;2023-02-07T05:05:16;4.10;;;2.08;;
63370;SDS011;49504;48.336;14.472;2023-02-07T05:10:19;4.68;;;2.70;;
63370;SDS011;49504;48.336;14.472;2023-02-07T05:19:50;4.10;;;2.20;;
63370;SDS011;49504;48.336;14.472;2023-02-07T05:24:51;4.63;;;2.53;;
63370;SDS011;49504;48.336;14.472;2023-02-07T05:29:52;4.55;;;2.45;;
63370;SDS011;49504;48.336;14.472;2023-02-07T05:34:55;4.50;;;2.42;;
63370;SDS011;49504;48.336;14.472;2023-02-07T05:39:56;4.18;;;2.05;;
63370;SDS011;49504;48.336;14.472;2023-02-07T05:44:57;5.80;;;2.88;;
63370;SDS011;49504;48.336;14.472;2023-02-07T05:49:59;5.60;;;2.88;;
63370;SDS011;49504;48.336;14.472;2023-02-07T05:55:01;5.25;;;2.75;;
63370;SDS011;49504;48.336;14.472;2023-02-07T06:00:03;4.78;;;2.58;;
63370;SDS011;49504;48.336;14.472;2023-02-07T06:05:14;5.45;;;2.78;;
63370;SDS011;49504;48.336;14.472;2023-02-07T06:10:18;6.20;;;2.45;;
63370;SDS011;49504;48.336;14.472;2023-02-07T06:15:20;4.43;;;2.60;;
63370;SDS011;49504;48.336;14.472;2023-02-07T06:20:22;4.57;;;2.55;;
63370;SDS011;49504;48.336;14.472;2023-02-07T06:25:23;4.55;;;2.83;;
63370;SDS011;49504;48.336;14.472;2023-02-07T06:32:03;5.88;;;3.63;;
63370;SDS011;49504;48.336;14.472;2023-02-07T06:37:05;7.03;;;3.45;;
63370;SDS011;49504;48.336;14.472;2023-02-07T06:42:06;6.10;;;2.92;;
63370;SDS011;49504;48.336;14.472;2023-02-07T06:47:08;5.28;;;3.45;;
63370;SDS011;49504;48.336;14.472;2023-02-07T06:52:09;8.95;;;4.53;;
63370;SDS011;49504;48.336;14.472;2023-02-07T06:58:47;7.43;;;3.63;;
63370;SDS011;49504;48.336;14.472;2023-02-07T07:03:49;7.25;;;3.92;;
63370;SDS011;49504;48.336;14.472;2023-02-07T07:08:50;8.93;;;4.82;;
63370;SDS011;49504;48.336;14.472;2023-02-07T07:13:52;9.60;;;4.53;;
63370;SDS011;49504;48.336;14.472;2023-02-07T07:18:53;9.88;;;4.47;;
63370;SDS011;49504;48.336;14.472;2023-02-07T07:23:54;8.50;;;4.80;;
63370;SDS011;49504;48.336;14.472;2023-02-07T07:28:57;10.15;;;4.30;;
63370;SDS011;49504;48.336;14.472;2023-02-07T07:33:58;9.88;;;4.75;;
63370;SDS011;49504;48.336;14.472;2023-02-07T07:38:59;9.07;;;5.28;;
63370;SDS011;49504;48.336;14.472;2023-02-07T07:44:02;8.75;;;4.43;;
63370;SDS011;49504;48.336;14.472;2023-02-07T07:49:03;7.47;;;4.65;;
63370;SDS011;49504;48.336;14.472;2023-02-07T07:54:04;7.15;;;3.97;;
63370;SDS011;49504;48.336;14.472;2023-02-07T07:59:07;7.40;;;4.10;;
63370;SDS011;49504;48.336;14.472;2023-02-07T08:05:47;6.53;;;3.55;;
63370;SDS011;49504;48.336;14.472;2023-02-07T08:10:48;7.10;;;3.83;;
63370;SDS011;49504;48.336;14.472;2023-02-07T08:15:49;8.70;;;4.07;;
63370;SDS011;49504;48.336;14.472;2023-02-07T08:20:52;6.50;;;3.75;;
63370;SDS011;49504;48.336;14.472;2023-02-07T08:25:53;8.70;;;4.72;;
63370;SDS011;49504;48.336;14.472;2023-02-07T08:32:31;5.95;;;3.90;;
63370;SDS011;49504;48.336;14.472;2023-02-07T08:37:32;6.45;;;3.88;;
63370;SDS011;49504;48.336;14.472;2023-02-07T08:42:33;6.82;;;3.97;;
63370;SDS011;49504;48.336;14.472;2023-02-07T08:51:43;6.15;;;3.40;;
63370;SDS011;49504;48.336;14.472;2023-02-07T08:56:45;5.65;;;3.78;;
63370;SDS011;49504;48.336;14.472;2023-02-07T09:01:46;7.40;;;3.88;;
63370;SDS011;49504;48.336;14.472;2023-02-07T09:06:48;6.53;;;3.90;;
63370;SDS011;49504;48.336;14.472;2023-02-07T09:11:50;7.05;;;3.90;;
63370;SDS011;49504;48.336;14.472;2023-02-07T09:16:51;7.38;;;4.07;;
63370;SDS011;49504;48.336;14.472;2023-02-07T09:21:53;6.28;;;4.03;;
63370;SDS011;49504;48.336;14.472;2023-02-07T09:26:54;6.38;;;3.72;;
63370;SDS011;49504;48.336;14.472;2023-02-07T09:33:07;8.77;;;3.65;;
63370;SDS011;49504;48.336;14.472;2023-02-07T09:38:10;6.65;;;4.38;;
63370;SDS011;49504;48.336;14.472;2023-02-07T09:43:17;5.63;;;3.40;;
63370;SDS011;49504;48.336;14.472;2023-02-07T09:48:35;5.35;;;3.40;;
63370;SDS011;49504;48.336;14.472;2023-02-07T09:53:49;6.22;;;3.42;;
63370;SDS011;49504;48.336;14.472;2023-02-07T09:58:56;5.70;;;3.63;;
63370;SDS011;49504;48.336;14.472;2023-02-07T10:09:36;6.28;;;3.50;;
63370;SDS011;49504;48.336;14.472;2023-02-07T10:14:54;7.00;;;4.03;;
63370;SDS011;49504;48.336;14.472;2023-02-07T10:20:19;7.97;;;4.03;;
63370;SDS011;49504;48.336;14.472;2023-02-07T10:25:31;6.50;;;3.88;;
63370;SDS011;49504;48.336;14.472;2023-02-07T10:33:21;6.18;;;3.90;;
63370;SDS011;49504;48.336;14.472;2023-02-07T10:38:27;5.65;;;3.55;;
63370;SDS011;49504;48.336;14.472;2023-02-07T10:43:45;6.03;;;3.90;;
63370;SDS011;49504;48.336;14.472;2023-02-07T10:48:47;8.02;;;4.20;;
63370;SDS011;49504;48.336;14.472;2023-02-07T10:53:49;5.95;;;3.40;;
63370;SDS011;49504;48.336;14.472;2023-02-07T10:59:02;5.50;;;3.45;;
63370;SDS011;49504;48.336;14.472;2023-02-07T11:04:06;6.50;;;4.22;;
63370;SDS011;49504;48.336;14.472;2023-02-07T11:09:23;6.45;;;3.70;;
63370;SDS011;49504;48.336;14.472;2023-02-07T11:14:25;7.13;;;4.60;;
63370;SDS011;49504;48.336;14.472;2023-02-07T11:19:27;6.78;;;3.92;;
63370;SDS011;49504;48.336;14.472;2023-02-07T11:24:30;5.63;;;3.72;;
63370;SDS011;49504;48.336;14.472;2023-02-07T11:29:38;5.75;;;3.70;;
63370;SDS011;49504;48.336;14.472;2023-02-07T11:34:48;5.75;;;3.75;;
63370;SDS011;49504;48.336;14.472;2023-02-07T11:39:52;6.15;;;3.88;;
63370;SDS011;49504;48.336;14.472;2023-02-07T11:44:57;5.82;;;3.70;;
63370;SDS011;49504;48.336;14.472;2023-02-07T11:50:04;6.50;;;3.70;;
63370;SDS011;49504;48.336;14.472;2023-02-07T11:55:08;6.82;;;4.03;;
63370;SDS011;49504;48.336;14.472;2023-02-07T12:00:22;7.10;;;4.03;;
63370;SDS011;49504;48.336;14.472;2023-02-07T12:05:28;6.60;;;4.60;;
63370;SDS011;49504;48.336;14.472;2023-02-07T12:10:37;10.93;;;6.75;;
63370;SDS011;49504;48.336;14.472;2023-02-07T12:15:44;6.78;;;4.75;;
63370;SDS011;49504;48.336;14.472;2023-02-07T12:20:52;8.18;;;5.40;;
63370;SDS011;49504;48.336;14.472;2023-02-07T12:26:02;6.82;;;4.22;;
63370;SDS011;49504;48.336;14.472;2023-02-07T12:31:14;7.88;;;5.38;;
63370;SDS011;49504;48.336;14.472;2023-02-07T12:36:24;7.88;;;5.60;;
63370;SDS011;49504;48.336;14.472;2023-02-07T12:41:30;7.87;;;5.10;;
63370;SDS011;49504;48.336;14.472;2023-02-07T12:49:34;7.32;;;5.00;;
63370;SDS011;49504;48.336;14.472;2023-02-07T12:55:03;7.20;;;4.80;;
63370;SDS011;49504;48.336;14.472;2023-02-07T13:00:15;7.25;;;4.70;;
63370;SDS011;49504;48.336;14.472;2023-02-07T13:05:27;6.75;;;4.55;;
63370;SDS011;49504;48.336;14.472;2023-02-07T13:10:43;6.30;;;4.35;;
63370;SDS011;49504;48.336;14.472;2023-02-07T13:15:55;6.80;;;4.85;;
63370;SDS011;49504;48.336;14.472;2023-02-07T13:21:07;6.95;;;4.78;;
63370;SDS011;49504;48.336;14.472;2023-02-07T13:26:18;7.03;;;5.05;;
63370;SDS011;49504;48.336;14.472;2023-02-07T13:31:33;8.23;;;5.10;;
63370;SDS011;49504;48.336;14.472;2023-02-07T13:36:41;7.55;;;4.55;;
63370;SDS011;49504;48.336;14.472;2023-02-07T13:41:47;6.93;;;4.50;;
63370;SDS011;49504;48.336;14.472;2023-02-07T13:52:42;7.00;;;4.35;;
63370;SDS011;49504;48.336;14.472;2023-02-07T13:57:47;7.13;;;4.68;;
63370;SDS011;49504;48.336;14.472;2023-02-07T14:02:48;6.90;;;4.90;;
63370;SDS011;49504;48.336;14.472;2023-02-07T14:07:55;6.53;;;4.30;;
63370;SDS011;49504;48.336;14.472;2023-02-07T14:12:59;6.55;;;4.65;;
63370;SDS011;49504;48.336;14.472;2023-02-07T14:18:01;7.05;;;4.95;;
63370;SDS011;49504;48.336;14.472;2023-02-07T14:23:12;7.85;;;5.20;;
63370;SDS011;49504;48.336;14.472;2023-02-07T14:28:20;6.57;;;5.03;;
63370;SDS011;49504;48.336;14.472;2023-02-07T14:33:32;7.00;;;4.63;;
63370;SDS011;49504;48.336;14.472;2023-02-07T14:38:37;6.78;;;4.70;;
63370;SDS011;49504;48.336;14.472;2023-02-07T14:43:42;6.63;;;4.90;;
63370;SDS011;49504;48.336;14.472;2023-02-07T14:48:49;7.97;;;5.20;;
63370;SDS011;49504;48.336;14.472;2023-02-07T14:53:59;6.97;;;4.65;;
63370;SDS011;49504;48.336;14.472;2023-02-07T14:59:06;7.55;;;5.15;;
63370;SDS011;49504;48.336;14.472;2023-02-07T15:04:11;7.68;;;5.13;;
63370;SDS011;49504;48.336;14.472;2023-02-07T15:09:17;7.25;;;4.88;;
63370;SDS011;49504;48.336;14.472;2023-02-07T15:19:08;6.65;;;4.65;;
63370;SDS011;49504;48.336;14.472;2023-02-07T15:24:15;6.88;;;4.85;;
63370;SDS011;49504;48.336;14.472;2023-02-07T15:29:27;7.90;;;5.00;;
63370;SDS011;49504;48.336;14.472;2023-02-07T15:34:32;7.93;;;5.40;;
63370;SDS011;49504;48.336;14.472;2023-02-07T15:39:33;6.88;;;4.78;;
63370;SDS011;49504;48.336;14.472;2023-02-07T15:44:45;8.05;;;5.07;;
63370;SDS011;49504;48.336;14.472;2023-02-07T15:50:35;7.50;;;4.90;;
63370;SDS011;49504;48.336;14.472;2023-02-07T15:55:40;7.70;;;5.07;;
63370;SDS011;49504;48.336;14.472;2023-02-07T16:00:44;8.05;;;5.18;;
63370;SDS011;49504;48.336;14.472;2023-02-07T16:05:46;6.65;;;4.68;;
63370;SDS011;49504;48.336;14.472;2023-02-07T16:10:48;6.97;;;5.03;;
63370;SDS011;49504;48.336;14.472;2023-02-07T16:15:51;7.13;;;4.65;;
63370;SDS011;49504;48.336;14.472;2023-02-07T16:20:56;6.55;;;4.63;;
63370;SDS011;49504;48.336;14.472;2023-02-07T16:25:58;8.40;;;5.13;;
63370;SDS011;49504;48.336;14.472;2023-02-07T16:30:59;8.25;;;5.38;;
63370;SDS011;49504;48.336;14.472;2023-02-07T16:36:02;6.97;;;4.80;;
63370;SDS011;49504;48.336;14.472;2023-02-07T16:41:03;6.45;;;4.28;;
63370;SDS011;49504;48.336;14.472;2023-02-07T16:46:05;5.57;;;4.18;;
63370;SDS011;49504;48.336;14.472;2023-02-07T16:51:07;7.18;;;4.97;;
63370;SDS011;49504;48.336;14.472;2023-02-07T16:56:09;6.95;;;5.15;;
63370;SDS011;49504;48.336;14.472;2023-02-07T17:01:14;6.63;;;4.55;;
63370;SDS011;49504;48.336;14.472;2023-02-07T17:06:20;6.25;;;3.78;;
63370;SDS011;49504;48.336;14.472;2023-02-07T17:11:23;7.05;;;4.65;;
63370;SDS011;49504;48.336;14.472;2023-02-07T17:16:25;7.03;;;4.82;;
63370;SDS011;49504;48.336;14.472;2023-02-07T17:21:28;7.15;;;4.80;;
63370;SDS011;49504;48.336;14.472;2023-02-07T17:26:29;6.85;;;4.38;;
63370;SDS011;49504;48.336;14.472;2023-02-07T17:31:31;6.13;;;4.18;;
63370;SDS011;49504;48.336;14.472;2023-02-07T17:36:33;6.30;;;4.63;;
63370;SDS011;49504;48.336;14.472;2023-02-07T17:41:35;6.28;;;4.50;;
63370;SDS011;49504;48.336;14.472;2023-02-07T17:46:36;7.10;;;4.80;;
63370;SDS011;49504;48.336;14.472;2023-02-07T17:51:39;6.68;;;4.75;;
63370;SDS011;49504;48.336;14.472;2023-02-07T17:56:40;6.13;;;4.32;;
63370;SDS011;49504;48.336;14.472;2023-02-07T18:01:41;7.57;;;4.95;;
63370;SDS011;49504;48.336;14.472;2023-02-07T18:08:06;6.57;;;4.38;;
63370;SDS011;49504;48.336;14.472;2023-02-07T18:13:09;5.80;;;4.05;;
63370;SDS011;49504;48.336;14.472;2023-02-07T18:18:11;6.43;;;4.10;;
63370;SDS011;49504;48.336;14.472;2023-02-07T18:23:14;6.85;;;4.35;;
63370;SDS011;49504;48.336;14.472;2023-02-07T18:28:15;8.20;;;5.18;;
63370;SDS011;49504;48.336;14.472;2023-02-07T18:33:17;6.70;;;4.25;;
63370;SDS011;49504;48.336;14.472;2023-02-07T18:38:20;7.95;;;5.13;;
63370;SDS011;49504;48.336;14.472;2023-02-07T18:43:21;9.02;;;5.15;;
63370;SDS011;49504;48.336;14.472;2023-02-07T18:48:22;10.48;;;5.35;;
63370;SDS011;49504;48.336;14.472;2023-02-07T18:53:24;7.13;;;4.75;;
63370;SDS011;49504;48.336;14.472;2023-02-07T18:58:25;8.43;;;5.25;;
63370;SDS011;49504;48.336;14.472;2023-02-07T19:03:26;7.88;;;5.38;;
63370;SDS011;49504;48.336;14.472;2023-02-07T19:08:29;8.10;;;5.53;;
63370;SDS011;49504;48.336;14.472;2023-02-07T19:13:31;6.72;;;4.72;;
63370;SDS011;49504;48.336;14.472;2023-02-07T19:18:33;9.50;;;5.50;;
63370;SDS011;49504;48.336;14.472;2023-02-07T19:25:09;9.13;;;5.97;;
63370;SDS011;49504;48.336;14.472;2023-02-07T19:34:12;8.93;;;5.10;;
63370;SDS011;49504;48.336;14.472;2023-02-07T19:39:14;9.00;;;5.60;;
63370;SDS011;49504;48.336;14.472;2023-02-07T19:44:15;8.23;;;5.32;;
63370;SDS011;49504;48.336;14.472;2023-02-07T19:49:18;10.13;;;6.03;;
63370;SDS011;49504;48.336;14.472;2023-02-07T19:54:19;9.07;;;5.05;;
63370;SDS011;49504;48.336;14.472;2023-02-07T19:59:20;9.40;;;6.10;;
63370;SDS011;49504;48.336;14.472;2023-02-07T20:04:22;7.10;;;5.22;;
63370;SDS011;49504;48.336;14.472;2023-02-07T20:09:24;8.55;;;5.82;;
63370;SDS011;49504;48.336;14.472;2023-02-07T20:14:25;7.88;;;5.90;;
63370;SDS011;49504;48.336;14.472;2023-02-07T20:19:27;9.05;;;5.70;;
63370;SDS011;49504;48.336;14.472;2023-02-07T20:24:28;9.77;;;6.13;;
63370;SDS011;49504;48.336;14.472;2023-02-07T20:29:29;9.27;;;6.15;;
63370;SDS011;49504;48.336;14.472;2023-02-07T20:34:32;9.25;;;6.55;;
63370;SDS011;49504;48.336;14.472;2023-02-07T20:39:33;9.38;;;6.30;;
63370;SDS011;49504;48.336;14.472;2023-02-07T20:44:34;9.02;;;5.82;;
63370;SDS011;49504;48.336;14.472;2023-02-07T20:49:37;8.18;;;5.45;;
63370;SDS011;49504;48.336;14.472;2023-02-07T20:54:38;8.15;;;5.45;;
63370;SDS011;49504;48.336;14.472;2023-02-07T20:59:39;7.68;;;5.22;;
63370;SDS011;49504;48.336;14.472;2023-02-07T21:04:42;7.55;;;5.28;;
63370;SDS011;49504;48.336;14.472;2023-02-07T21:09:43;8.88;;;5.47;;
63370;SDS011;49504;48.336;14.472;2023-02-07T21:14:44;8.30;;;5.20;;
63370;SDS011;49504;48.336;14.472;2023-02-07T21:19:46;9.38;;;5.45;;
63370;SDS011;49504;48.336;14.472;2023-02-07T21:24:47;9.02;;;5.57;;
63370;SDS011;49504;48.336;14.472;2023-02-07T21:31:40;8.02;;;5.68;;
63370;SDS011;49504;48.336;14.472;2023-02-07T21:36:41;8.65;;;5.78;;
63370;SDS011;49504;48.336;14.472;2023-02-07T21:41:43;7.53;;;5.60;;
63370;SDS011;49504;48.336;14.472;2023-02-07T21:46:47;7.30;;;5.13;;
63370;SDS011;49504;48.336;14.472;2023-02-07T21:51:49;7.38;;;5.15;;
63370;SDS011;49504;48.336;14.472;2023-02-07T21:56:50;8.25;;;5.28;;
63370;SDS011;49504;48.336;14.472;2023-02-07T22:01:52;7.57;;;5.03;;
63370;SDS011;49504;48.336;14.472;2023-02-07T22:09:39;8.30;;;5.40;;
63370;SDS011;49504;48.336;14.472;2023-02-07T22:14:40;8.02;;;5.47;;
63370;SDS011;49504;48.336;14.472;2023-02-07T22:19:41;7.68;;;5.30;;
63370;SDS011;49504;48.336;14.472;2023-02-07T22:24:44;6.95;;;4.93;;
63370;SDS011;49504;48.336;14.472;2023-02-07T22:29:47;7.82;;;5.10;;
63370;SDS011;49504;48.336;14.472;2023-02-07T22:34:48;7.95;;;4.93;;
63370;SDS011;49504;48.336;14.472;2023-02-07T22:39:51;8.10;;;4.75;;
63370;SDS011;49504;48.336;14.472;2023-02-07T22:44:52;7.80;;;4.70;;
63370;SDS011;49504;48.336;14.472;2023-02-07T22:49:53;6.63;;;4.32;;
63370;SDS011;49504;48.336;14.472;2023-02-07T22:54:55;8.80;;;5.00;;
63370;SDS011;49504;48.336;14.472;2023-02-07T22:59:57;7.03;;;4.80;;
63370;SDS011;49504;48.336;14.472;2023-02-07T23:08:29;7.47;;;5.03;;
63370;SDS011;49504;48.336;14.472;2023-02-07T23:13:31;7.30;;;4.40;;
63370;SDS011;49504;48.336;14.472;2023-02-07T23:18:32;7.25;;;4.88;;
63370;SDS011;49504;48.336;14.472;2023-02-07T23:23:34;6.90;;;4.60;;
63370;SDS011;49504;48.336;14.472;2023-02-07T23:28:36;6.38;;;4.20;;
63370;SDS011;49504;48.336;14.472;2023-02-07T23:33:38;7.03;;;5.25;;
63370;SDS011;49504;48.336;14.472;2023-02-07T23:38:41;6.53;;;4.68;;
63370;SDS011;49504;48.336;14.472;2023-02-07T23:43:42;8.25;;;5.20;;
63370;SDS011;49504;48.336;14.472;2023-02-07T23:48:44;7.03;;;4.82;;
63370;SDS011;49504;48.336;14.472;2023-02-07T23:53:46;7.18;;;4.53;;
63370;SDS011;49504;48.336;14.472;2023-02-07T23:58:48;7.18;;;4.82;;
